createdAt,value
2023-04-16T00:00:00.832Z,2.1
2023-04-16T00:01:00.805Z,1.8
2023-04-16T00:02:00.858Z,1.8
2023-04-16T00:03:00.860Z,1.8
2023-04-16T00:04:01.055Z,1.8
2023-04-16T00:05:00.798Z,1.8
2023-04-16T00:06:00.730Z,1.8
2023-04-16T00:07:00.703Z,1.8
2023-04-16T00:08:00.877Z,1.8
2023-04-16T00:09:00.711Z,1.8
2023-04-16T00:10:00.701Z,1.8
2023-04-16T00:11:00.741Z,2.0
2023-04-16T00:12:00.740Z,2.0
2023-04-16T00:13:00.796Z,2.0
2023-04-16T00:14:00.921Z,2.0
2023-04-16T00:15:00.811Z,2.0
2023-04-16T00:16:00.729Z,2.0
2023-04-16T00:17:00.728Z,2.0
2023-04-16T00:18:00.852Z,2.0
2023-04-16T00:19:00.731Z,2.0
2023-04-16T00:20:00.798Z,2.0
2023-04-16T00:21:00.743Z,2.0
2023-04-16T00:22:00.796Z,2.0
2023-04-16T00:23:00.686Z,2.0
2023-04-16T00:24:00.763Z,2.0
2023-04-16T00:25:00.751Z,2.0
2023-04-16T00:26:00.702Z,2.0
2023-04-16T00:27:00.741Z,2.0
2023-04-16T00:28:00.705Z,2.0
2023-04-16T00:29:00.721Z,2.0
2023-04-16T00:30:00.720Z,2.0
2023-04-16T00:31:00.752Z,1.7
2023-04-16T00:32:00.705Z,1.7
2023-04-16T00:33:00.763Z,1.7
2023-04-16T00:34:00.706Z,1.7
2023-04-16T00:35:00.748Z,1.7
2023-04-16T00:36:00.753Z,1.7
2023-04-16T00:37:00.698Z,1.7
2023-04-16T00:38:00.685Z,1.7
2023-04-16T00:39:00.720Z,1.7
2023-04-16T00:40:00.714Z,1.7
2023-04-16T00:41:00.722Z,2.1
2023-04-16T00:42:00.699Z,2.1
2023-04-16T00:43:00.749Z,2.1
2023-04-16T00:44:00.682Z,2.1
2023-04-16T00:45:00.730Z,2.1
2023-04-16T00:46:03.755Z,2.1
2023-04-16T00:47:00.993Z,2.1
2023-04-16T00:48:00.833Z,2.1
2023-04-16T00:49:01.578Z,2.1
2023-04-16T00:50:02.037Z,2.1
2023-04-16T00:51:01.401Z,2.0
2023-04-16T00:52:00.689Z,2.0
2023-04-16T00:53:01.096Z,2.0
2023-04-16T00:54:00.852Z,2.0
2023-04-16T00:55:00.901Z,2.0
2023-04-16T00:56:02.509Z,2.0
2023-04-16T00:57:01.182Z,2.0
2023-04-16T00:58:00.776Z,2.0
2023-04-16T00:59:00.795Z,2.0
2023-04-16T01:00:01.572Z,2.0
2023-04-16T01:01:00.918Z,1.5
2023-04-16T01:02:00.759Z,1.5
2023-04-16T01:03:00.910Z,1.5
2023-04-16T01:04:00.815Z,1.5
2023-04-16T01:05:01.370Z,1.5
2023-04-16T01:06:00.803Z,1.5
2023-04-16T01:07:00.713Z,1.5
2023-04-16T01:08:00.728Z,1.5
2023-04-16T01:09:00.773Z,1.5
2023-04-16T01:10:01.040Z,1.5
2023-04-16T01:11:00.839Z,1.9
2023-04-16T01:12:00.705Z,1.9
2023-04-16T01:13:00.689Z,1.9
2023-04-16T01:14:00.703Z,1.9
2023-04-16T01:15:00.890Z,1.9
2023-04-16T01:16:00.749Z,1.9
2023-04-16T01:17:01.371Z,1.9
2023-04-16T01:18:00.775Z,1.9
2023-04-16T01:19:00.942Z,1.9
2023-04-16T01:20:00.779Z,1.9
2023-04-16T01:21:00.725Z,1.8
2023-04-16T01:22:01.225Z,1.8
2023-04-16T01:23:00.715Z,1.8
2023-04-16T01:24:02.879Z,1.8
2023-04-16T01:25:00.723Z,1.8
2023-04-16T01:26:00.707Z,1.8
2023-04-16T01:27:00.728Z,1.8
2023-04-16T01:28:00.712Z,1.8
2023-04-16T01:29:01.369Z,1.8
2023-04-16T01:30:00.727Z,1.8
2023-04-16T01:31:00.797Z,2.4
2023-04-16T01:32:00.706Z,2.4
2023-04-16T01:33:00.887Z,2.4
2023-04-16T01:34:00.699Z,2.4
2023-04-16T01:35:00.726Z,2.4
2023-04-16T01:36:00.699Z,2.4
2023-04-16T01:37:00.723Z,2.4
2023-04-16T01:38:00.890Z,2.4
2023-04-16T01:39:00.720Z,2.4
2023-04-16T01:40:00.706Z,2.4
2023-04-16T01:41:00.750Z,1.6
2023-04-16T01:42:00.806Z,1.6
2023-04-16T01:43:01.039Z,1.6
2023-04-16T01:44:00.737Z,1.6
2023-04-16T01:45:00.775Z,1.6
2023-04-16T01:46:10.610Z,1.6
2023-04-16T01:47:00.779Z,1.6
2023-04-16T01:48:01.293Z,1.6
2023-04-16T01:49:01.463Z,1.6
2023-04-16T01:50:02.511Z,1.6
2023-04-16T01:51:00.777Z,1.1
2023-04-16T01:52:00.789Z,1.1
2023-04-16T01:53:00.763Z,1.1
2023-04-16T01:54:00.733Z,1.1
2023-04-16T01:55:00.725Z,1.1
2023-04-16T01:56:00.885Z,1.1
2023-04-16T01:57:00.710Z,1.1
2023-04-16T01:58:00.728Z,1.1
2023-04-16T01:59:00.731Z,1.1
2023-04-16T02:00:01.356Z,1.1
2023-04-16T02:01:00.900Z,1.0
2023-04-16T02:02:04.749Z,1.0
2023-04-16T02:03:00.912Z,1.0
2023-04-16T02:04:00.942Z,1.0
2023-04-16T02:05:00.758Z,1.0
2023-04-16T02:06:01.324Z,1.0
2023-04-16T02:07:00.741Z,1.0
2023-04-16T02:08:01.087Z,1.0
2023-04-16T02:09:00.746Z,1.0
2023-04-16T02:10:00.764Z,1.0
2023-04-16T02:11:00.731Z,0.8
2023-04-16T02:12:00.914Z,0.8
2023-04-16T02:13:00.712Z,0.8
2023-04-16T02:14:00.740Z,0.8
2023-04-16T02:15:00.821Z,0.8
2023-04-16T02:16:00.792Z,0.8
2023-04-16T02:17:00.725Z,0.8
2023-04-16T02:18:00.769Z,0.8
2023-04-16T02:19:00.716Z,0.8
2023-04-16T02:20:00.740Z,0.8
2023-04-16T02:21:00.719Z,1.0
2023-04-16T02:22:00.706Z,1.0
2023-04-16T02:23:00.775Z,1.0
2023-04-16T02:24:00.708Z,1.0
2023-04-16T02:25:00.776Z,1.0
2023-04-16T02:26:02.010Z,1.0
2023-04-16T02:27:00.704Z,1.0
2023-04-16T02:28:00.713Z,1.0
2023-04-16T02:29:00.805Z,1.0
2023-04-16T02:30:00.692Z,1.0
2023-04-16T02:31:00.710Z,0.8
2023-04-16T02:32:00.838Z,0.8
2023-04-16T02:33:00.814Z,0.8
2023-04-16T02:34:00.857Z,0.8
2023-04-16T02:35:00.728Z,0.8
2023-04-16T02:36:00.696Z,0.8
2023-04-16T02:37:00.826Z,0.8
2023-04-16T02:38:01.231Z,0.8
2023-04-16T02:39:00.694Z,0.8
2023-04-16T02:40:00.728Z,0.8
2023-04-16T02:41:00.689Z,0.9
2023-04-16T02:42:00.745Z,0.9
2023-04-16T02:43:00.712Z,0.9
2023-04-16T02:44:00.707Z,0.9
2023-04-16T02:45:00.743Z,0.9
2023-04-16T02:46:00.924Z,0.9
2023-04-16T02:47:00.700Z,0.9
2023-04-16T02:48:00.765Z,0.9
2023-04-16T02:49:00.710Z,0.9
2023-04-16T02:50:00.694Z,0.9
2023-04-16T02:51:00.701Z,1.1
2023-04-16T02:52:00.698Z,1.1
2023-04-16T02:53:00.743Z,1.1
2023-04-16T02:54:00.752Z,1.1
2023-04-16T02:55:00.691Z,1.1
2023-04-16T02:56:00.716Z,1.1
2023-04-16T02:57:00.723Z,1.1
2023-04-16T02:58:00.724Z,1.1
2023-04-16T02:59:00.793Z,1.1
2023-04-16T03:00:01.137Z,1.1
2023-04-16T03:01:00.746Z,1.0
2023-04-16T03:02:00.757Z,1.0
2023-04-16T03:03:00.710Z,1.0
2023-04-16T03:04:00.764Z,1.0
2023-04-16T03:05:01.152Z,1.0
2023-04-16T03:06:00.691Z,1.0
2023-04-16T03:07:00.720Z,1.0
2023-04-16T03:08:00.683Z,1.0
2023-04-16T03:09:00.729Z,1.0
2023-04-16T03:10:00.868Z,1.0
2023-04-16T03:11:00.702Z,1.1
2023-04-16T03:12:00.676Z,1.1
2023-04-16T03:13:01.109Z,1.1
2023-04-16T03:14:00.699Z,1.1
2023-04-16T03:15:01.060Z,1.1
2023-04-16T03:16:00.804Z,1.1
2023-04-16T03:17:00.726Z,1.1
2023-04-16T03:18:00.795Z,1.1
2023-04-16T03:19:00.701Z,1.1
2023-04-16T03:20:00.764Z,1.1
2023-04-16T03:21:00.975Z,0.9
2023-04-16T03:22:00.729Z,0.9
2023-04-16T03:23:00.698Z,0.9
2023-04-16T03:24:00.702Z,0.9
2023-04-16T03:25:00.686Z,0.9
2023-04-16T03:26:00.743Z,0.9
2023-04-16T03:27:00.732Z,0.9
2023-04-16T03:28:00.713Z,0.9
2023-04-16T03:29:00.690Z,0.9
2023-04-16T03:30:01.132Z,0.9
2023-04-16T03:31:00.703Z,0.9
2023-04-16T03:32:00.799Z,0.9
2023-04-16T03:33:00.746Z,0.9
2023-04-16T03:34:00.748Z,0.9
2023-04-16T03:35:00.769Z,0.9
2023-04-16T03:36:00.692Z,0.9
2023-04-16T03:37:00.722Z,0.9
2023-04-16T03:38:00.701Z,0.9
2023-04-16T03:39:00.722Z,0.9
2023-04-16T03:40:00.722Z,0.9
2023-04-16T03:41:00.725Z,1.0
2023-04-16T03:42:00.729Z,1.0
2023-04-16T03:43:00.834Z,1.0
2023-04-16T03:44:00.752Z,1.0
2023-04-16T03:45:00.699Z,1.0
2023-04-16T03:46:00.775Z,1.0
2023-04-16T03:47:00.714Z,1.0
2023-04-16T03:48:00.721Z,1.0
2023-04-16T03:49:00.708Z,1.0
2023-04-16T03:50:00.686Z,1.0
2023-04-16T03:51:00.725Z,0.8
2023-04-16T03:52:00.729Z,0.8
2023-04-16T03:53:00.764Z,0.8
2023-04-16T03:54:00.763Z,0.8
2023-04-16T03:55:00.719Z,0.8
2023-04-16T03:56:00.721Z,0.8
2023-04-16T03:57:00.688Z,0.8
2023-04-16T03:58:00.901Z,0.8
2023-04-16T03:59:00.708Z,0.8
2023-04-16T04:00:00.727Z,0.8
2023-04-16T04:01:00.731Z,0.6
2023-04-16T04:02:00.842Z,0.6
2023-04-16T04:03:00.883Z,0.6
2023-04-16T04:04:00.917Z,0.6
2023-04-16T04:05:00.791Z,0.6
2023-04-16T04:06:00.735Z,0.6
2023-04-16T04:07:00.716Z,0.6
2023-04-16T04:08:00.690Z,0.6
2023-04-16T04:09:00.808Z,0.6
2023-04-16T04:10:00.706Z,0.6
2023-04-16T04:11:00.759Z,0.8
2023-04-16T04:12:00.722Z,0.8
2023-04-16T04:13:02.797Z,0.8
2023-04-16T04:14:00.712Z,0.8
2023-04-16T04:15:00.727Z,0.8
2023-04-16T04:16:00.827Z,0.8
2023-04-16T04:17:00.723Z,0.8
2023-04-16T04:18:00.741Z,0.8
2023-04-16T04:19:00.715Z,0.8
2023-04-16T04:20:01.891Z,0.8
2023-04-16T04:21:04.667Z,0.7
2023-04-16T04:22:00.730Z,0.7
2023-04-16T04:23:00.703Z,0.7
2023-04-16T04:24:00.689Z,0.7
2023-04-16T04:25:00.717Z,0.7
2023-04-16T04:26:01.001Z,0.7
2023-04-16T04:27:00.781Z,0.7
2023-04-16T04:28:00.706Z,0.7
2023-04-16T04:29:00.898Z,0.7
2023-04-16T04:30:00.981Z,0.7
2023-04-16T04:31:00.813Z,0.8
2023-04-16T04:32:00.818Z,0.8
2023-04-16T04:33:00.720Z,0.8
2023-04-16T04:34:00.717Z,0.8
2023-04-16T04:35:01.679Z,0.8
2023-04-16T04:36:00.726Z,0.8
2023-04-16T04:37:00.760Z,0.8
2023-04-16T04:38:02.572Z,0.8
2023-04-16T04:39:00.725Z,0.8
2023-04-16T04:40:00.725Z,0.8
2023-04-16T04:41:00.743Z,1.0
2023-04-16T04:42:00.725Z,1.0
2023-04-16T04:43:00.718Z,1.0
2023-04-16T04:44:00.700Z,1.0
2023-04-16T04:45:00.722Z,1.0
2023-04-16T04:46:00.752Z,1.0
2023-04-16T04:47:00.704Z,1.0
2023-04-16T04:48:00.748Z,1.0
2023-04-16T04:49:00.764Z,1.0
2023-04-16T04:50:00.725Z,1.0
2023-04-16T04:51:01.979Z,1.1
2023-04-16T04:52:00.776Z,1.1
2023-04-16T04:53:00.726Z,1.1
2023-04-16T04:54:00.711Z,1.1
2023-04-16T04:55:00.808Z,1.1
2023-04-16T04:56:11.159Z,1.1
2023-04-16T04:57:00.717Z,1.1
2023-04-16T04:58:01.742Z,1.1
2023-04-16T04:59:00.732Z,1.1
2023-04-16T05:00:00.901Z,1.1
2023-04-16T05:01:00.745Z,1.0
2023-04-16T05:02:00.767Z,1.0
2023-04-16T05:03:01.613Z,1.0
2023-04-16T05:04:00.801Z,1.0
2023-04-16T05:05:01.028Z,1.0
2023-04-16T05:06:00.745Z,1.0
2023-04-16T05:07:00.742Z,1.0
2023-04-16T05:08:00.793Z,1.0
2023-04-16T05:09:00.748Z,1.0
2023-04-16T05:10:00.758Z,1.0
2023-04-16T05:11:00.976Z,0.8
2023-04-16T05:12:00.706Z,0.8
2023-04-16T05:13:00.795Z,0.8
2023-04-16T05:14:00.708Z,0.8
2023-04-16T05:15:00.770Z,0.8
2023-04-16T05:16:00.712Z,0.8
2023-04-16T05:17:00.831Z,0.8
2023-04-16T05:18:00.789Z,0.8
2023-04-16T05:19:00.757Z,0.8
2023-04-16T05:20:00.736Z,0.8
2023-04-16T05:21:00.764Z,1.0
2023-04-16T05:22:00.810Z,1.0
2023-04-16T05:23:00.717Z,1.0
2023-04-16T05:24:00.688Z,1.0
2023-04-16T05:25:00.743Z,1.0
2023-04-16T05:26:00.716Z,1.0
2023-04-16T05:27:00.721Z,1.0
2023-04-16T05:28:00.701Z,1.0
2023-04-16T05:29:00.746Z,1.0
2023-04-16T05:30:00.795Z,1.0
2023-04-16T05:31:00.806Z,0.9
2023-04-16T05:32:00.791Z,0.9
2023-04-16T05:33:01.012Z,0.9
2023-04-16T05:34:00.702Z,0.9
2023-04-16T05:35:00.825Z,0.9
2023-04-16T05:36:00.722Z,0.9
2023-04-16T05:37:00.724Z,0.9
2023-04-16T05:38:00.703Z,0.9
2023-04-16T05:39:00.726Z,0.9
2023-04-16T05:40:00.749Z,0.9
2023-04-16T05:41:00.707Z,0.9
2023-04-16T05:42:00.731Z,0.9
2023-04-16T05:43:00.697Z,0.9
2023-04-16T05:44:00.844Z,0.9
2023-04-16T05:45:01.707Z,0.9
2023-04-16T05:46:00.788Z,0.9
2023-04-16T05:47:00.749Z,0.9
2023-04-16T05:48:00.724Z,0.9
2023-04-16T05:49:00.688Z,0.9
2023-04-16T05:50:00.772Z,0.9
2023-04-16T05:51:00.688Z,0.9
2023-04-16T05:52:00.967Z,0.9
2023-04-16T05:53:01.241Z,0.9
2023-04-16T05:54:00.721Z,0.9
2023-04-16T05:55:00.804Z,0.9
2023-04-16T05:56:00.685Z,0.9
2023-04-16T05:57:00.702Z,0.9
2023-04-16T05:58:00.680Z,0.9
2023-04-16T05:59:00.836Z,0.9
2023-04-16T06:00:00.727Z,0.9
2023-04-16T06:01:00.740Z,0.7
2023-04-16T06:02:00.775Z,0.7
2023-04-16T06:03:01.499Z,0.7
2023-04-16T06:04:00.775Z,0.7
2023-04-16T06:05:00.729Z,0.7
2023-04-16T06:06:00.764Z,0.7
2023-04-16T06:07:00.701Z,0.7
2023-04-16T06:08:00.753Z,0.7
2023-04-16T06:09:00.714Z,0.7
2023-04-16T06:10:00.707Z,0.7
2023-04-16T06:11:00.798Z,0.8
2023-04-16T06:12:00.749Z,0.8
2023-04-16T06:13:00.708Z,0.8
2023-04-16T06:14:00.733Z,0.8
2023-04-16T06:15:00.834Z,0.8
2023-04-16T06:16:00.771Z,0.8
2023-04-16T06:17:00.790Z,0.8
2023-04-16T06:18:01.111Z,0.8
2023-04-16T06:19:00.704Z,0.8
2023-04-16T06:20:00.693Z,0.8
2023-04-16T06:21:00.715Z,0.9
2023-04-16T06:22:00.786Z,0.9
2023-04-16T06:23:00.770Z,0.9
2023-04-16T06:24:00.727Z,0.9
2023-04-16T06:25:00.737Z,0.9
2023-04-16T06:26:00.710Z,0.9
2023-04-16T06:27:00.778Z,0.9
2023-04-16T06:28:00.851Z,0.9
2023-04-16T06:29:00.729Z,0.9
2023-04-16T06:30:00.727Z,0.9
2023-04-16T06:31:00.746Z,1.0
2023-04-16T06:32:01.321Z,1.0
2023-04-16T06:33:00.712Z,1.0
2023-04-16T06:34:00.716Z,1.0
2023-04-16T06:35:00.749Z,1.0
2023-04-16T06:36:00.714Z,1.0
2023-04-16T06:37:00.710Z,1.0
2023-04-16T06:38:00.686Z,1.0
2023-04-16T06:39:00.767Z,1.0
2023-04-16T06:40:00.959Z,1.0
2023-04-16T06:41:00.727Z,0.8
2023-04-16T06:42:00.782Z,0.8
2023-04-16T06:43:00.686Z,0.8
2023-04-16T06:44:00.709Z,0.8
2023-04-16T06:45:00.809Z,0.8
2023-04-16T06:46:00.667Z,0.8
2023-04-16T06:47:00.772Z,0.8
2023-04-16T06:48:00.800Z,0.8
2023-04-16T06:49:00.718Z,0.8
2023-04-16T06:50:00.810Z,0.8
2023-04-16T06:51:00.761Z,1.1
2023-04-16T06:52:00.752Z,1.1
2023-04-16T06:53:00.791Z,1.1
2023-04-16T06:54:00.697Z,1.1
2023-04-16T06:55:01.010Z,1.1
2023-04-16T06:56:00.704Z,1.1
2023-04-16T06:57:00.724Z,1.1
2023-04-16T06:58:00.705Z,1.1
2023-04-16T06:59:00.740Z,1.1
2023-04-16T07:00:00.830Z,1.1
2023-04-16T07:01:00.837Z,0.8
2023-04-16T07:02:00.902Z,0.8
2023-04-16T07:03:00.785Z,0.8
2023-04-16T07:04:00.982Z,0.8
2023-04-16T07:05:00.696Z,0.8
2023-04-16T07:06:00.711Z,0.8
2023-04-16T07:07:00.707Z,0.8
2023-04-16T07:08:00.719Z,0.8
2023-04-16T07:09:00.703Z,0.8
2023-04-16T07:10:00.748Z,0.8
2023-04-16T07:11:00.797Z,0.7
2023-04-16T07:12:00.860Z,0.7
2023-04-16T07:13:00.740Z,0.7
2023-04-16T07:14:00.705Z,0.7
2023-04-16T07:15:00.728Z,0.7
2023-04-16T07:16:00.760Z,0.7
2023-04-16T07:17:00.778Z,0.7
2023-04-16T07:18:00.782Z,0.7
2023-04-16T07:19:00.747Z,0.7
2023-04-16T07:20:00.716Z,0.7
2023-04-16T07:21:00.734Z,0.9
2023-04-16T07:22:00.775Z,0.9
2023-04-16T07:23:01.103Z,0.9
2023-04-16T07:24:01.875Z,0.9
2023-04-16T07:25:00.734Z,0.9
2023-04-16T07:26:00.696Z,0.9
2023-04-16T07:27:00.697Z,0.9
2023-04-16T07:28:02.014Z,0.9
2023-04-16T07:29:00.742Z,0.9
2023-04-16T07:30:00.729Z,0.9
2023-04-16T07:31:00.763Z,1.0
2023-04-16T07:32:00.803Z,1.0
2023-04-16T07:33:02.642Z,1.0
2023-04-16T07:34:00.799Z,1.0
2023-04-16T07:35:00.734Z,1.0
2023-04-16T07:36:00.782Z,1.0
2023-04-16T07:37:00.689Z,1.0
2023-04-16T07:38:00.712Z,1.0
2023-04-16T07:39:00.751Z,1.0
2023-04-16T07:40:00.807Z,1.0
2023-04-16T07:41:00.869Z,1.0
2023-04-16T07:42:00.738Z,1.0
2023-04-16T07:43:00.708Z,1.0
2023-04-16T07:44:00.738Z,1.0
2023-04-16T07:45:00.815Z,1.0
2023-04-16T07:46:00.751Z,1.0
2023-04-16T07:47:01.621Z,1.0
2023-04-16T07:48:00.752Z,1.0
2023-04-16T07:49:00.704Z,1.0
2023-04-16T07:50:00.751Z,1.0
2023-04-16T07:51:00.982Z,1.0
2023-04-16T07:52:01.021Z,0.9
2023-04-16T07:53:00.699Z,0.9
2023-04-16T07:54:00.752Z,0.9
2023-04-16T07:55:00.717Z,0.9
2023-04-16T07:56:00.773Z,0.9
2023-04-16T07:57:00.771Z,0.9
2023-04-16T07:58:00.711Z,0.9
2023-04-16T07:59:08.043Z,0.9
2023-04-16T08:00:00.830Z,0.9
2023-04-16T08:01:01.185Z,0.9
2023-04-16T08:02:00.834Z,0.7
2023-04-16T08:03:00.929Z,0.7
2023-04-16T08:04:00.848Z,0.7
2023-04-16T08:05:00.876Z,0.7
2023-04-16T08:06:00.783Z,0.7
2023-04-16T08:07:00.750Z,0.7
2023-04-16T08:08:00.751Z,0.7
2023-04-16T08:09:00.758Z,0.7
2023-04-16T08:10:00.794Z,0.7
2023-04-16T08:11:00.705Z,0.7
2023-04-16T08:12:01.453Z,0.9
2023-04-16T08:13:00.789Z,0.9
2023-04-16T08:14:00.733Z,0.9
2023-04-16T08:15:00.689Z,0.9
2023-04-16T08:16:00.769Z,0.9
2023-04-16T08:17:00.694Z,0.9
2023-04-16T08:18:00.860Z,0.9
2023-04-16T08:19:00.707Z,0.9
2023-04-16T08:20:00.773Z,0.9
2023-04-16T08:21:00.736Z,0.9
2023-04-16T08:22:00.830Z,0.8
2023-04-16T08:23:00.689Z,0.8
2023-04-16T08:24:00.691Z,0.8
2023-04-16T08:25:00.710Z,0.8
2023-04-16T08:26:00.720Z,0.8
2023-04-16T08:27:11.556Z,0.8
2023-04-16T08:28:00.744Z,0.8
2023-04-16T08:29:00.818Z,0.8
2023-04-16T08:30:00.712Z,0.8
2023-04-16T08:31:00.770Z,0.8
2023-04-16T08:32:00.709Z,1.0
2023-04-16T08:33:00.802Z,1.0
2023-04-16T08:34:00.777Z,1.0
2023-04-16T08:35:00.759Z,1.0
2023-04-16T08:36:00.701Z,1.1
2023-04-16T08:37:00.818Z,1.1
2023-04-16T08:38:02.693Z,1.1
2023-04-16T08:39:00.719Z,1.1
2023-04-16T08:40:01.184Z,1.1
2023-04-16T08:41:04.551Z,1.1
2023-04-16T08:42:03.719Z,1.1
2023-04-16T08:43:01.858Z,1.1
2023-04-16T08:44:05.890Z,1.1
2023-04-16T08:45:04.095Z,1.1
2023-04-16T08:46:00.803Z,1.0
2023-04-16T08:56:02.663Z,1.0
2023-04-16T08:57:04.589Z,1.0
2023-04-16T08:58:02.415Z,1.0
2023-04-16T08:59:01.711Z,1.0
2023-04-16T09:00:01.140Z,1.0
2023-04-16T09:01:02.153Z,1.0
2023-04-16T09:02:01.064Z,1.0
2023-04-16T09:03:01.652Z,1.0
2023-04-16T09:04:02.015Z,1.0
2023-04-16T09:05:02.508Z,1.0
2023-04-16T09:06:01.079Z,0.9
2023-04-16T09:07:02.275Z,0.9
2023-04-16T09:08:00.812Z,0.9
2023-04-16T09:09:00.975Z,0.9
2023-04-16T09:10:00.811Z,0.9
2023-04-16T09:11:00.875Z,0.9
2023-04-16T09:12:00.998Z,0.9
2023-04-16T09:13:00.757Z,0.9
2023-04-16T09:14:00.952Z,0.9
2023-04-16T09:15:01.243Z,0.9
2023-04-16T09:16:01.186Z,0.9
2023-04-16T09:17:01.369Z,0.9
2023-04-16T09:18:00.993Z,0.9
2023-04-16T09:19:00.805Z,0.9
2023-04-16T09:20:00.874Z,0.9
2023-04-16T09:21:00.747Z,0.9
2023-04-16T09:22:00.725Z,0.9
2023-04-16T09:23:00.683Z,0.9
2023-04-16T09:24:00.930Z,0.9
2023-04-16T09:25:00.748Z,0.9
2023-04-16T09:26:00.922Z,0.8
2023-04-16T09:27:01.414Z,0.8
2023-04-16T09:28:00.736Z,0.8
2023-04-16T09:29:00.916Z,0.8
2023-04-16T09:30:00.743Z,0.8
2023-04-16T09:31:10.627Z,0.8
2023-04-16T09:32:02.068Z,0.8
2023-04-16T09:33:10.567Z,0.8
2023-04-16T09:34:00.686Z,0.8
2023-04-16T09:35:00.817Z,0.8
2023-04-16T09:36:01.113Z,0.8
2023-04-16T09:37:10.598Z,0.8
2023-04-16T09:38:00.699Z,0.8
2023-04-16T09:39:01.789Z,0.8
2023-04-16T09:40:02.201Z,0.8
2023-04-16T09:41:07.986Z,0.8
2023-04-16T09:42:04.203Z,0.8
2023-04-16T09:43:08.679Z,0.8
2023-04-16T09:44:01.728Z,0.8
2023-04-16T09:45:03.383Z,0.8
2023-04-16T09:46:07.873Z,0.9
2023-04-16T09:47:04.593Z,0.9
2023-04-16T09:48:02.313Z,0.9
2023-04-16T09:49:06.932Z,0.9
2023-04-16T09:50:00.717Z,0.9
2023-04-16T09:51:00.832Z,0.9
2023-04-16T09:52:00.758Z,0.9
2023-04-16T09:53:01.275Z,0.9
2023-04-16T09:54:03.281Z,0.9
2023-04-16T09:55:00.745Z,0.9
2023-04-16T09:56:02.267Z,0.9
2023-04-16T09:57:00.707Z,0.9
2023-04-16T09:58:01.191Z,0.9
2023-04-16T09:59:00.737Z,0.9
2023-04-16T10:00:01.838Z,0.9
2023-04-16T10:01:00.747Z,0.9
2023-04-16T10:02:14.614Z,0.9
2023-04-16T10:03:04.715Z,0.9
2023-04-16T10:04:00.886Z,0.9
2023-04-16T10:05:01.382Z,0.9
2023-04-16T10:06:06.306Z,1.4
2023-04-16T10:07:04.652Z,1.4
2023-04-16T10:08:00.749Z,1.4
2023-04-16T10:09:00.718Z,1.4
2023-04-16T10:10:01.762Z,1.4
2023-04-16T10:11:01.343Z,1.4
2023-04-16T10:12:00.732Z,1.4
2023-04-16T10:13:00.822Z,1.4
2023-04-16T10:14:00.725Z,1.4
2023-04-16T10:15:00.738Z,1.4
2023-04-16T10:16:02.109Z,1.2
2023-04-16T10:17:01.244Z,1.2
2023-04-16T10:18:01.215Z,1.2
2023-04-16T10:19:01.068Z,1.2
2023-04-16T10:20:02.155Z,1.2
2023-04-16T10:21:00.920Z,1.2
2023-04-16T10:22:01.132Z,1.2
2023-04-16T10:23:01.107Z,1.2
2023-04-16T10:24:01.805Z,1.2
2023-04-16T10:25:01.072Z,1.2
2023-04-16T10:26:01.493Z,1.6
2023-04-16T10:27:00.793Z,1.6
2023-04-16T10:28:01.698Z,1.6
2023-04-16T10:29:01.685Z,1.6
2023-04-16T10:30:00.813Z,1.6
2023-04-16T10:31:02.246Z,1.6
2023-04-16T10:32:01.024Z,1.6
2023-04-16T10:33:02.833Z,1.6
2023-04-16T10:34:01.340Z,1.6
2023-04-16T10:35:00.782Z,1.6
2023-04-16T10:36:10.612Z,1.8
2023-04-16T10:37:00.717Z,1.8
2023-04-16T10:38:10.590Z,1.8
2023-04-16T10:39:00.742Z,1.8
2023-04-16T10:40:00.708Z,1.8
2023-04-16T10:41:02.511Z,1.8
2023-04-16T10:42:08.107Z,1.8
2023-04-16T10:43:00.991Z,1.8
2023-04-16T10:44:04.887Z,1.8
2023-04-16T10:45:02.091Z,1.8
2023-04-16T10:46:10.597Z,3.4
2023-04-16T10:47:00.892Z,3.4
2023-04-16T10:48:03.377Z,3.4
2023-04-16T10:49:02.000Z,3.4
2023-04-16T10:50:00.706Z,3.4
2023-04-16T10:51:00.719Z,3.4
2023-04-16T10:52:06.394Z,3.4
2023-04-16T10:53:10.559Z,3.4
2023-04-16T10:54:01.733Z,3.4
2023-04-16T10:55:00.749Z,3.4
2023-04-16T10:56:01.721Z,3.6
2023-04-16T10:57:04.379Z,3.6
2023-04-16T10:58:00.706Z,3.6
2023-04-16T10:59:03.468Z,3.6
2023-04-16T11:00:00.763Z,3.6
2023-04-16T11:01:05.373Z,3.6
2023-04-16T11:02:05.240Z,3.6
2023-04-16T11:03:00.791Z,3.6
2023-04-16T11:04:10.924Z,3.6
2023-04-16T11:05:00.858Z,3.6
2023-04-16T11:06:10.570Z,2.5
2023-04-16T11:07:10.594Z,2.5
2023-04-16T11:08:10.579Z,2.5
2023-04-16T11:09:01.825Z,2.5
2023-04-16T11:10:10.598Z,2.5
2023-04-16T11:11:03.715Z,2.5
2023-04-16T11:12:01.951Z,2.5
2023-04-16T11:13:01.218Z,2.5
2023-04-16T11:14:03.585Z,2.5
2023-04-16T11:15:02.871Z,2.5
2023-04-16T11:16:00.782Z,2.7
2023-04-16T11:17:02.648Z,2.7
2023-04-16T11:18:00.863Z,2.7
2023-04-16T11:19:00.753Z,2.7
2023-04-16T11:20:00.806Z,2.7
2023-04-16T11:21:01.021Z,2.7
2023-04-16T11:22:01.326Z,2.7
2023-04-16T11:23:00.722Z,2.7
2023-04-16T11:24:00.717Z,2.7
2023-04-16T11:25:00.927Z,2.7
2023-04-16T11:26:00.735Z,2.0
2023-04-16T11:27:00.700Z,2.0
2023-04-16T11:28:00.983Z,2.0
2023-04-16T11:29:00.917Z,2.0
2023-04-16T11:30:01.963Z,2.0
2023-04-16T11:31:09.387Z,2.0
2023-04-16T11:32:00.729Z,2.0
2023-04-16T11:33:04.257Z,2.0
2023-04-16T11:34:00.733Z,2.0
2023-04-16T11:35:01.400Z,2.0
2023-04-16T11:36:00.704Z,1.8
2023-04-16T11:37:00.719Z,1.8
2023-04-16T11:38:00.847Z,1.8
2023-04-16T11:39:01.177Z,1.8
2023-04-16T11:40:01.998Z,1.8
2023-04-16T11:41:00.846Z,1.8
2023-04-16T11:42:00.721Z,1.8
2023-04-16T11:43:01.510Z,1.8
2023-04-16T11:44:11.168Z,1.8
2023-04-16T11:45:00.719Z,1.8
2023-04-16T11:46:09.978Z,2.0
2023-04-16T11:47:04.648Z,2.0
2023-04-16T11:48:00.719Z,2.0
2023-04-16T11:49:00.715Z,2.0
2023-04-16T11:50:10.589Z,2.0
2023-04-16T11:51:00.760Z,2.0
2023-04-16T11:52:00.760Z,2.0
2023-04-16T11:53:03.802Z,2.0
2023-04-16T11:54:01.043Z,2.0
2023-04-16T11:55:01.538Z,2.0
2023-04-16T11:56:00.813Z,1.9
2023-04-16T11:57:00.864Z,1.9
2023-04-16T11:58:10.453Z,1.9
2023-04-16T11:59:10.969Z,1.9
2023-04-16T12:00:02.121Z,1.9
2023-04-16T12:01:00.883Z,1.9
2023-04-16T12:02:00.817Z,1.9
2023-04-16T12:03:01.765Z,1.9
2023-04-16T12:04:01.358Z,1.9
2023-04-16T12:05:01.737Z,1.9
2023-04-16T12:06:06.560Z,1.7
2023-04-16T12:07:10.577Z,1.7
2023-04-16T12:08:02.469Z,1.7
2023-04-16T12:09:10.809Z,1.7
2023-04-16T12:10:04.922Z,1.7
2023-04-16T12:11:00.711Z,1.7
2023-04-16T12:12:01.077Z,1.7
2023-04-16T12:13:10.604Z,1.7
2023-04-16T12:14:08.636Z,1.7
2023-04-16T12:15:01.823Z,1.7
2023-04-16T12:16:00.763Z,2.7
2023-04-16T12:17:10.631Z,2.7
2023-04-16T12:18:08.124Z,2.7
2023-04-16T12:19:01.398Z,2.7
2023-04-16T12:20:02.869Z,2.7
2023-04-16T12:21:03.455Z,2.7
2023-04-16T12:22:00.683Z,2.7
2023-04-16T12:23:00.772Z,2.7
2023-04-16T12:24:00.767Z,2.7
2023-04-16T12:25:05.205Z,2.7
2023-04-16T12:26:07.903Z,2.1
2023-04-16T12:27:01.193Z,2.1
2023-04-16T12:28:00.704Z,2.1
2023-04-16T12:29:10.709Z,2.1
2023-04-16T12:30:02.989Z,2.1
2023-04-16T12:31:01.186Z,2.1
2023-04-16T12:32:00.704Z,2.1
2023-04-16T12:33:10.620Z,2.1
2023-04-16T12:34:01.545Z,2.1
2023-04-16T12:35:00.717Z,2.1
2023-04-16T12:36:00.751Z,3.8
2023-04-16T12:37:06.675Z,3.8
2023-04-16T12:38:00.740Z,3.8
2023-04-16T12:39:00.704Z,3.8
2023-04-16T12:40:00.751Z,3.8
2023-04-16T12:41:00.710Z,3.8
2023-04-16T12:42:00.749Z,3.8
2023-04-16T12:43:01.160Z,3.8
2023-04-16T12:44:04.194Z,3.8
2023-04-16T12:45:01.511Z,3.8
2023-04-16T12:46:03.526Z,4.1
2023-04-16T12:47:00.700Z,4.1
2023-04-16T12:48:00.840Z,4.1
2023-04-16T12:49:00.733Z,4.1
2023-04-16T12:50:00.694Z,4.1
2023-04-16T12:51:00.704Z,4.1
2023-04-16T12:52:01.467Z,4.1
2023-04-16T12:53:00.719Z,4.1
2023-04-16T12:54:01.379Z,4.1
2023-04-16T12:55:01.196Z,4.1
2023-04-16T12:56:00.692Z,4.3
2023-04-16T12:57:00.730Z,4.3
2023-04-16T12:58:00.714Z,4.3
2023-04-16T12:59:00.839Z,4.3
2023-04-16T13:00:00.778Z,4.3
2023-04-16T13:01:00.714Z,4.3
2023-04-16T13:02:00.828Z,4.3
2023-04-16T13:03:00.908Z,4.3
2023-04-16T13:04:00.817Z,4.3
2023-04-16T13:05:00.738Z,4.3
2023-04-16T13:06:00.839Z,3.2
2023-04-16T13:07:00.715Z,3.2
2023-04-16T13:08:00.723Z,3.2
2023-04-16T13:09:00.745Z,3.2
2023-04-16T13:10:00.864Z,3.2
2023-04-16T13:11:00.689Z,3.2
2023-04-16T13:12:00.700Z,3.2
2023-04-16T13:13:00.717Z,3.2
2023-04-16T13:14:00.830Z,3.2
2023-04-16T13:15:00.714Z,3.2
2023-04-16T13:16:00.914Z,3.4
2023-04-16T13:17:01.355Z,3.4
2023-04-16T13:18:00.718Z,3.4
2023-04-16T13:19:00.722Z,3.4
2023-04-16T13:20:00.733Z,3.4
2023-04-16T13:21:00.828Z,3.4
2023-04-16T13:22:00.720Z,3.4
2023-04-16T13:23:00.742Z,3.4
2023-04-16T13:24:00.786Z,3.4
2023-04-16T13:25:00.728Z,3.4
2023-04-16T13:26:00.752Z,3.7
2023-04-16T13:27:00.719Z,3.7
2023-04-16T13:28:00.744Z,3.7
2023-04-16T13:29:00.730Z,3.7
2023-04-16T13:30:00.741Z,3.7
2023-04-16T13:31:02.230Z,3.7
2023-04-16T13:32:00.825Z,3.7
2023-04-16T13:33:00.811Z,3.7
2023-04-16T13:34:00.838Z,3.7
2023-04-16T13:35:00.767Z,3.7
2023-04-16T13:36:00.689Z,2.9
2023-04-16T13:37:00.720Z,2.9
2023-04-16T13:38:00.726Z,2.9
2023-04-16T13:39:00.828Z,2.9
2023-04-16T13:40:00.694Z,2.9
2023-04-16T13:41:00.746Z,2.9
2023-04-16T13:42:00.805Z,2.9
2023-04-16T13:43:00.702Z,2.9
2023-04-16T13:44:00.734Z,2.9
2023-04-16T13:45:01.351Z,2.9
2023-04-16T13:46:00.726Z,3.2
2023-04-16T13:47:00.827Z,3.2
2023-04-16T13:48:01.001Z,3.2
2023-04-16T13:49:00.866Z,3.2
2023-04-16T13:50:00.792Z,3.2
2023-04-16T13:51:01.392Z,3.2
2023-04-16T13:52:00.698Z,3.2
2023-04-16T13:53:00.724Z,3.2
2023-04-16T13:54:00.700Z,3.2
2023-04-16T13:55:00.932Z,3.2